createdAt,value
2022-08-09T00:02:28.053Z,101958.47
2022-08-09T00:05:02.961Z,101961.22
2022-08-09T00:07:44.661Z,101961.22
2022-08-09T00:10:17.788Z,101963.44
2022-08-09T00:12:45.566Z,101959.47
2022-08-09T00:15:14.635Z,101962.44
2022-08-09T00:18:09.397Z,101957.63
2022-08-09T00:20:27.465Z,101955.66
2022-08-09T00:22:57.985Z,101957.97
2022-08-09T00:25:34.852Z,101951.56
2022-08-09T00:28:03.964Z,101955.97
2022-08-09T00:30:30.570Z,101952.03
2022-08-09T00:32:57.295Z,101955.00
2022-08-09T00:35:24.285Z,101955.00
2022-08-09T00:37:50.617Z,101962.28
2022-08-09T00:40:19.823Z,101962.06
2022-08-09T00:44:15.930Z,101949.06
2022-08-09T00:45:34.879Z,101961.13
2022-08-09T00:48:03.523Z,101951.88
2022-08-09T00:50:30.034Z,101953.34
2022-08-09T00:52:56.686Z,101952.03
2022-08-09T00:55:54.200Z,101956.16
2022-08-09T00:58:09.760Z,101955.81
2022-08-09T01:00:43.472Z,101952.69
2022-08-09T01:03:15.080Z,101948.56
2022-08-09T01:05:53.778Z,101952.03
2022-08-09T01:08:34.738Z,101949.84
2022-08-09T01:11:08.837Z,101953.00
2022-08-09T01:13:58.664Z,101962.28
2022-08-09T01:16:40.977Z,101966.34
2022-08-09T01:20:01.735Z,101966.75
2022-08-09T01:23:03.392Z,101965.91
2022-08-09T01:25:48.695Z,101965.69
2022-08-09T01:28:19.357Z,101970.06
2022-08-09T01:30:51.805Z,101973.81
2022-08-09T01:33:21.242Z,101968.22
2022-08-09T01:36:01.642Z,101964.09
2022-08-09T01:38:30.598Z,101962.59
2022-08-09T01:41:05.828Z,101969.25
2022-08-09T01:43:42.265Z,101963.56
2022-08-09T01:46:32.398Z,101963.72
2022-08-09T01:49:12.734Z,101963.34
2022-08-09T01:51:54.349Z,101965.00
2022-08-09T01:54:33.257Z,101974.75
2022-08-09T01:57:09.394Z,101966.03
2022-08-09T01:59:40.826Z,101975.59
2022-08-09T02:02:20.437Z,101964.53
2022-08-09T02:04:50.179Z,101959.97
2022-08-09T02:08:40.657Z,101958.91
2022-08-09T02:10:14.173Z,101951.72
2022-08-09T02:12:43.443Z,101957.94
2022-08-09T02:15:15.408Z,101955.75
2022-08-09T02:18:00.321Z,101959.56
2022-08-09T02:20:34.030Z,101957.13
2022-08-09T02:23:19.972Z,101959.16
2022-08-09T02:25:55.631Z,101967.22
2022-08-09T02:28:33.831Z,101963.72
2022-08-09T02:31:05.961Z,101964.50
2022-08-09T02:33:38.057Z,101958.72
2022-08-09T02:36:31.489Z,101956.34
2022-08-09T02:39:04.376Z,101958.88
2022-08-09T02:41:48.194Z,101953.16
2022-08-09T02:44:29.399Z,101950.13
2022-08-09T02:46:58.961Z,101949.97
2022-08-09T02:49:38.795Z,101950.38
2022-08-09T02:52:11.709Z,101949.91
2022-08-09T02:54:54.599Z,101950.84
2022-08-09T02:57:25.264Z,101949.81
2022-08-09T03:00:20.802Z,101954.84
2022-08-09T03:02:58.758Z,101957.31
2022-08-09T03:05:28.462Z,101961.41
2022-08-09T03:07:55.753Z,101962.22
2022-08-09T03:10:23.927Z,101960.75
2022-08-09T03:12:52.108Z,101969.66
2022-08-09T03:15:19.283Z,101966.97
2022-08-09T03:17:47.540Z,101969.19
2022-08-09T03:20:25.892Z,101973.66
2022-08-09T03:23:00.342Z,101978.56
2022-08-09T03:26:03.139Z,101972.31
2022-08-09T03:28:30.820Z,101975.41
2022-08-09T03:30:58.847Z,101976.84
2022-08-09T03:33:26.962Z,101974.63
2022-08-09T03:36:16.761Z,101973.84
2022-08-09T03:38:44.736Z,101972.84
2022-08-09T03:41:16.584Z,101977.56
2022-08-09T03:43:51.734Z,101969.53
2022-08-09T03:46:30.748Z,101968.78
2022-08-09T03:49:04.330Z,101970.66
2022-08-09T03:51:56.820Z,101969.19
2022-08-09T03:54:29.765Z,101973.06
2022-08-09T03:57:00.045Z,101971.41
2022-08-09T03:59:53.649Z,101971.63
2022-08-09T04:02:14.203Z,101969.81
2022-08-09T04:04:41.037Z,101968.38
2022-08-09T04:07:12.046Z,101975.56
2022-08-09T04:09:48.075Z,101977.34
2022-08-09T04:12:31.077Z,101982.03
2022-08-09T04:15:01.852Z,101979.69
2022-08-09T04:17:38.126Z,101977.66
2022-08-09T04:20:07.007Z,101983.25
2022-08-09T04:22:34.011Z,101984.22
2022-08-09T04:25:01.568Z,101987.78
2022-08-09T04:27:29.461Z,101991.63
2022-08-09T04:29:56.447Z,101993.75
2022-08-09T04:32:23.533Z,101993.28
2022-08-09T04:34:58.438Z,101994.66
2022-08-09T04:37:45.827Z,101992.63
2022-08-09T04:40:28.857Z,101997.19
2022-08-09T04:43:00.709Z,102006.72
2022-08-09T04:45:30.312Z,102005.28
2022-08-09T04:47:58.787Z,102005.34
2022-08-09T04:50:31.914Z,102006.56
2022-08-09T04:53:04.254Z,102014.66
2022-08-09T04:55:38.944Z,102019.63
2022-08-09T04:58:09.476Z,102020.47
2022-08-09T05:00:36.718Z,102014.66
2022-08-09T05:03:30.558Z,102013.41
2022-08-09T05:06:04.235Z,102021.78
2022-08-09T05:08:33.719Z,102028.78
2022-08-09T05:11:01.080Z,102029.44
2022-08-09T05:13:28.978Z,102028.53
2022-08-09T05:15:59.852Z,102019.75
2022-08-09T05:18:50.799Z,102027.09
2022-08-09T05:21:22.960Z,102024.94
2022-08-09T05:23:59.720Z,102027.16
2022-08-09T05:26:36.371Z,102031.81
2022-08-09T05:29:04.266Z,102026.66
2022-08-09T05:31:43.998Z,102026.09
2022-08-09T05:34:16.481Z,102023.50
2022-08-09T05:36:44.085Z,102023.78
2022-08-09T05:39:14.600Z,102017.34
2022-08-09T05:41:55.678Z,102019.50
2022-08-09T05:44:28.911Z,102028.25
2022-08-09T05:46:59.386Z,102029.06
2022-08-09T05:50:09.091Z,102037.19
2022-08-09T05:52:12.056Z,102035.66
2022-08-09T05:54:39.878Z,102034.88
2022-08-09T05:57:07.653Z,102039.28
2022-08-09T05:59:39.358Z,102035.56
2022-08-09T06:02:08.758Z,102034.38
2022-08-09T06:04:36.569Z,102042.94
2022-08-09T06:07:06.040Z,102049.03
2022-08-09T06:09:54.039Z,102055.22
2022-08-09T06:12:22.214Z,102053.31
2022-08-09T06:14:52.879Z,102053.75
2022-08-09T06:17:19.263Z,102053.88
2022-08-09T06:19:46.306Z,102055.84
2022-08-09T06:22:15.752Z,102054.44
2022-08-09T06:24:42.144Z,102055.94
2022-08-09T06:27:08.824Z,102049.69
2022-08-09T06:29:48.313Z,102060.59
2022-08-09T06:32:53.497Z,102058.47
2022-08-09T06:35:08.440Z,102059.81
2022-08-09T06:37:52.891Z,102062.66
2022-08-09T06:40:22.018Z,102051.44
2022-08-09T06:42:51.135Z,102061.00
2022-08-09T06:46:05.513Z,102070.72
2022-08-09T06:48:04.410Z,102065.59
2022-08-09T06:50:31.925Z,102067.78
2022-08-09T06:52:58.480Z,102064.00
2022-08-09T06:55:24.949Z,102072.59
2022-08-09T06:58:02.867Z,102070.31
2022-08-09T07:00:55.908Z,102074.09
2022-08-09T07:03:18.068Z,102055.38
2022-08-09T07:06:02.368Z,102075.25
2022-08-09T07:08:30.730Z,102076.75
2022-08-09T07:10:57.106Z,102068.09
2022-08-09T07:13:29.404Z,102071.38
2022-08-09T07:16:42.563Z,102067.78
2022-08-09T07:18:43.031Z,102071.66
2022-08-09T07:21:10.041Z,102076.53
2022-08-09T07:23:56.680Z,102076.88
2022-08-09T07:26:23.336Z,102072.28
2022-08-09T07:29:01.236Z,102070.53
2022-08-09T07:31:38.305Z,102079.91
2022-08-09T07:34:20.270Z,102082.69
2022-08-09T07:36:48.994Z,102086.88
2022-08-09T07:39:20.362Z,102079.25
2022-08-09T07:42:01.826Z,102083.78
2022-08-09T07:44:50.995Z,102075.78
2022-08-09T07:47:16.233Z,102073.47
2022-08-09T07:50:04.893Z,102075.66
2022-08-09T07:52:29.696Z,102079.97
2022-08-09T07:54:56.768Z,102066.75
2022-08-09T07:57:23.933Z,102064.25
2022-08-09T08:00:03.630Z,102065.34
2022-08-09T08:02:30.603Z,102068.03
2022-08-09T08:04:57.525Z,102067.63
2022-08-09T08:08:43.766Z,102061.16
2022-08-09T08:10:12.285Z,102063.81
2022-08-09T08:12:43.131Z,102066.34
2022-08-09T08:15:13.788Z,102064.81
2022-08-09T08:17:53.507Z,102065.72
2022-08-09T08:20:29.263Z,102079.19
2022-08-09T08:23:03.735Z,102070.53
2022-08-09T08:25:43.800Z,102073.59
2022-08-09T08:28:14.230Z,102061.66
2022-08-09T08:30:41.536Z,102068.50
2022-08-09T08:33:12.129Z,102068.41
2022-08-09T08:35:58.165Z,102074.78
2022-08-09T08:38:28.275Z,102076.94
2022-08-09T08:40:55.844Z,102073.59
2022-08-09T08:43:23.398Z,102076.66
2022-08-09T08:46:03.678Z,102069.00
2022-08-09T08:48:51.818Z,102076.78
2022-08-09T08:51:21.166Z,102069.94
2022-08-09T08:54:04.427Z,102073.88
2022-08-09T08:56:39.632Z,102073.22
2022-08-09T08:59:19.974Z,102076.19
2022-08-09T09:01:52.886Z,102071.78
2022-08-09T09:04:26.957Z,102071.78
2022-08-09T09:06:57.536Z,102071.25
2022-08-09T09:09:58.581Z,102076.25
2022-08-09T09:12:17.843Z,102074.88
2022-08-09T09:14:45.397Z,102069.59
2022-08-09T09:17:13.000Z,102074.94
2022-08-09T09:19:43.490Z,102079.28
2022-08-09T09:22:12.572Z,102087.81
2022-08-09T09:24:39.786Z,102080.72
2022-08-09T09:28:04.617Z,102082.16
2022-08-09T09:30:22.723Z,102080.75
2022-08-09T09:33:16.194Z,102080.50
2022-08-09T09:36:02.130Z,102070.63
2022-08-09T09:38:52.683Z,102079.81
2022-08-09T09:41:25.047Z,102076.47
2022-08-09T09:44:12.221Z,102082.69
2022-08-09T09:46:43.085Z,102075.03
2022-08-09T09:49:11.817Z,102073.84
2022-08-09T09:51:40.710Z,102077.22
2022-08-09T09:54:20.292Z,102070.75
2022-08-09T09:58:01.486Z,102079.72
2022-08-09T09:59:35.788Z,102074.31
2022-08-09T10:02:02.402Z,102072.41
2022-08-09T10:04:30.948Z,102070.41
2022-08-09T10:06:57.827Z,102077.78
2022-08-09T10:09:25.230Z,102073.28
2022-08-09T10:12:14.734Z,102056.44
2022-08-09T10:14:48.385Z,102061.97
2022-08-09T10:17:50.376Z,102055.91
2022-08-09T10:20:27.053Z,102054.00
2022-08-09T10:23:12.256Z,102062.00
2022-08-09T10:26:06.727Z,102058.50
2022-08-09T10:28:27.599Z,102052.09
2022-08-09T10:34:09.585Z,102044.63
2022-08-09T10:36:29.216Z,102048.72
2022-08-09T10:39:00.137Z,102039.16
2022-08-09T10:41:27.944Z,102037.78
2022-08-09T10:43:59.156Z,102045.75
2022-08-09T10:46:55.599Z,102039.03
2022-08-09T10:49:49.909Z,102043.63
2022-08-09T10:52:34.057Z,102037.34
2022-08-09T10:55:28.148Z,102046.19
2022-08-09T10:58:00.152Z,102045.09
2022-08-09T11:00:41.594Z,102048.63
2022-08-09T11:03:27.339Z,102044.47
2022-08-09T11:06:17.818Z,102027.63
2022-08-09T11:08:53.029Z,102049.22
2022-08-09T11:11:19.900Z,102049.53
2022-08-09T11:13:50.021Z,102047.84
2022-08-09T11:16:41.084Z,102048.03
2022-08-09T11:19:10.140Z,102046.84
2022-08-09T11:21:55.287Z,102050.34
2022-08-09T11:24:56.839Z,102045.78
2022-08-09T11:28:02.855Z,102047.88
2022-08-09T11:30:32.452Z,102052.16
2022-08-09T11:33:18.660Z,102039.88
2022-08-09T11:35:58.414Z,102047.56
2022-08-09T11:38:34.924Z,102043.13
2022-08-09T11:41:10.561Z,102055.91
2022-08-09T11:43:48.472Z,102043.38
2022-08-09T11:46:18.458Z,102039.25
2022-08-09T11:48:55.396Z,102029.53
2022-08-09T11:53:01.069Z,102029.81
2022-08-09T11:54:14.405Z,102030.22
2022-08-09T11:56:48.626Z,102017.81
2022-08-09T11:59:30.628Z,102022.78
2022-08-09T12:02:34.071Z,102011.81
2022-08-09T12:04:54.719Z,102022.41
2022-08-09T12:07:41.173Z,102019.16
2022-08-09T12:10:32.089Z,102017.53
2022-08-09T12:12:55.990Z,102013.69
2022-08-09T12:15:50.310Z,102011.41
2022-08-09T12:18:18.295Z,102005.94
2022-08-09T12:20:56.658Z,102009.00
2022-08-09T12:23:57.837Z,102011.63
2022-08-09T12:26:13.041Z,102001.41
2022-08-09T12:29:14.548Z,101998.41
2022-08-09T12:32:02.278Z,101994.03
2022-08-09T12:34:37.860Z,101996.34
2022-08-09T12:37:09.430Z,101995.50
2022-08-09T12:40:05.689Z,101990.94
2022-08-09T12:42:33.062Z,101982.06
2022-08-09T12:45:00.365Z,101980.97
2022-08-09T12:47:27.960Z,101963.63
2022-08-09T12:50:04.919Z,101980.94
2022-08-09T12:53:02.633Z,101974.78
2022-08-09T12:56:11.831Z,101957.75
2022-08-09T12:58:23.998Z,101964.41
2022-08-09T13:00:53.967Z,101964.53
2022-08-09T13:03:58.853Z,101955.22
2022-08-09T13:06:34.602Z,101957.69
2022-08-09T13:09:12.650Z,101953.97
2022-08-09T13:11:49.668Z,101962.00
2022-08-09T13:14:40.941Z,101962.16
2022-08-09T13:17:16.100Z,101958.84
2022-08-09T13:20:08.396Z,101960.69
2022-08-09T13:22:45.718Z,101954.16
2022-08-09T13:25:16.492Z,101950.19
2022-08-09T13:27:48.814Z,101956.34
2022-08-09T13:30:49.945Z,101947.66
2022-08-09T13:33:17.284Z,101945.00
2022-08-09T13:36:39.457Z,101950.69
2022-08-09T13:38:56.175Z,101951.56
2022-08-09T13:41:57.837Z,101954.97
2022-08-09T13:44:08.204Z,101951.47
2022-08-09T13:47:17.862Z,101951.00
2022-08-09T13:49:20.881Z,101949.72
2022-08-09T13:52:00.696Z,101944.13
2022-08-09T13:54:27.623Z,101949.34
2022-08-09T13:56:56.734Z,101936.47
2022-08-09T13:59:25.416Z,101938.31
2022-08-09T14:02:01.777Z,101931.59
2022-08-09T14:04:30.189Z,101923.38
2022-08-09T14:06:58.723Z,101925.31
2022-08-09T14:09:25.521Z,101922.88
2022-08-09T14:11:57.848Z,101926.25
2022-08-09T14:14:26.334Z,101934.75
2022-08-09T14:16:55.604Z,101925.63
2022-08-09T14:19:21.950Z,101927.09
2022-08-09T14:21:48.897Z,101920.03
2022-08-09T14:24:22.482Z,101928.59
2022-08-09T14:26:59.080Z,101924.22
2022-08-09T14:30:35.287Z,101921.13
2022-08-09T14:32:13.174Z,101916.75
2022-08-09T14:34:42.680Z,101927.19
2022-08-09T14:37:09.478Z,101927.00
2022-08-09T14:39:45.165Z,101922.84
2022-08-09T14:42:12.846Z,101925.16
2022-08-09T14:46:45.958Z,101928.03
2022-08-09T14:47:58.661Z,101918.63
2022-08-09T14:50:27.224Z,101926.38
2022-08-09T14:52:53.597Z,101917.88
2022-08-09T14:55:21.209Z,101912.25
2022-08-09T14:57:48.893Z,101919.28
2022-08-09T15:00:16.021Z,101904.41
2022-08-09T15:02:42.372Z,101909.53
2022-08-09T15:05:15.242Z,101912.59
2022-08-09T15:07:43.726Z,101907.75
2022-08-09T15:10:14.235Z,101908.44
2022-08-09T15:12:44.850Z,101909.19
2022-08-09T15:15:12.003Z,101917.31
2022-08-09T15:17:41.490Z,101907.97
2022-08-09T15:20:12.037Z,101909.31
2022-08-09T15:23:02.951Z,101909.72
2022-08-09T15:25:41.925Z,101909.72
2022-08-09T15:28:26.077Z,101905.75
2022-08-09T15:31:01.963Z,101901.63
2022-08-09T15:34:17.390Z,101903.22
2022-08-09T15:36:28.850Z,101912.00
2022-08-09T15:39:00.119Z,101903.91
2022-08-09T15:41:31.405Z,101903.69
2022-08-09T15:44:02.083Z,101902.69
2022-08-09T15:46:33.125Z,101908.72
2022-08-09T15:49:21.051Z,101894.13
2022-08-09T15:52:04.776Z,101897.16
2022-08-09T15:54:49.143Z,101904.94
2022-08-09T15:57:18.947Z,101893.50
2022-08-09T16:00:00.300Z,101895.91
2022-08-09T16:02:37.714Z,101895.28
2022-08-09T16:05:06.829Z,101894.50
2022-08-09T16:07:38.885Z,101891.53
2022-08-09T16:10:07.101Z,101894.94
2022-08-09T16:12:41.414Z,101892.84
2022-08-09T16:16:11.205Z,101890.00
2022-08-09T16:17:56.472Z,101895.75
2022-08-09T16:20:30.192Z,101893.88
2022-08-09T16:22:56.744Z,101884.19
2022-08-09T16:25:36.952Z,101890.38
2022-08-09T16:28:07.089Z,101892.91
2022-08-09T16:30:33.396Z,101892.06
2022-08-09T16:32:59.727Z,101897.22
2022-08-09T16:35:56.665Z,101891.09
2022-08-09T16:38:14.285Z,101890.47
2022-08-09T16:40:44.513Z,101895.75
2022-08-09T16:43:12.112Z,101891.19
2022-08-09T16:45:44.324Z,101888.56
2022-08-09T16:48:42.960Z,101888.84
2022-08-09T16:50:59.307Z,101889.31
2022-08-09T16:53:36.090Z,101888.06
2022-08-09T16:56:09.164Z,101891.94
2022-08-09T16:58:39.649Z,101897.03
2022-08-09T17:01:08.693Z,101889.81
2022-08-09T17:03:35.261Z,101892.53
2022-08-09T17:06:08.145Z,101891.41
2022-08-09T17:09:02.932Z,101890.25
2022-08-09T17:11:41.644Z,101886.28
2022-08-09T17:14:26.139Z,101886.41
2022-08-09T17:17:01.117Z,101884.75
2022-08-09T17:19:46.803Z,101878.44
2022-08-09T17:22:24.640Z,101883.88
2022-08-09T17:25:03.066Z,101894.25
2022-08-09T17:27:30.963Z,101897.00
2022-08-09T17:29:57.586Z,101892.25
2022-08-09T17:32:35.090Z,101900.47
2022-08-09T17:35:11.337Z,101895.59
2022-08-09T17:38:11.305Z,101896.41
2022-08-09T17:40:29.306Z,101890.50
2022-08-09T17:42:59.724Z,101897.91
2022-08-09T17:46:01.763Z,101898.75
2022-08-09T17:48:16.662Z,101900.53
2022-08-09T17:50:55.835Z,101896.41
2022-08-09T17:53:23.257Z,101896.06
2022-08-09T17:55:55.312Z,101899.03
2022-08-09T17:58:27.068Z,101901.00
2022-08-09T18:00:55.047Z,101901.13
2022-08-09T18:03:25.082Z,101908.84
2022-08-09T18:05:53.190Z,101899.19
2022-08-09T18:08:21.885Z,101907.13
2022-08-09T18:11:02.041Z,101915.63
2022-08-09T18:13:39.445Z,101912.78
2022-08-09T18:16:29.320Z,101918.41
2022-08-09T18:18:59.424Z,101914.59
2022-08-09T18:21:31.560Z,101917.28
2022-08-09T18:24:10.226Z,101923.94
2022-08-09T18:26:46.734Z,101926.03
2022-08-09T18:30:35.572Z,101928.25
2022-08-09T18:32:04.971Z,101923.28
2022-08-09T18:34:31.881Z,101925.78
2022-08-09T18:36:58.909Z,101926.78
2022-08-09T18:39:25.795Z,101936.88
2022-08-09T18:42:00.282Z,101934.41
2022-08-09T18:44:27.258Z,101932.69
2022-08-09T18:47:07.365Z,101932.53
2022-08-09T18:49:41.674Z,101936.16
2022-08-09T18:52:11.849Z,101930.09
2022-08-09T18:54:39.165Z,101936.91
2022-08-09T18:57:12.378Z,101935.09
2022-08-09T18:59:51.313Z,101937.94
2022-08-09T19:02:20.791Z,101944.59
2022-08-09T19:05:03.713Z,101947.44
2022-08-09T19:07:51.517Z,101956.66
2022-08-09T19:10:28.929Z,101952.66
2022-08-09T19:13:19.196Z,101957.63
2022-08-09T19:15:49.857Z,101956.19
2022-08-09T19:18:17.147Z,101963.78
2022-08-09T19:21:00.715Z,101962.44
2022-08-09T19:24:39.725Z,101954.34
2022-08-09T19:26:15.529Z,101961.06
2022-08-09T19:28:42.652Z,101955.22
2022-08-09T19:31:16.816Z,101957.28
2022-08-09T19:33:43.594Z,101958.72
2022-08-09T19:36:11.780Z,101959.44
2022-08-09T19:38:39.981Z,101957.38
2022-08-09T19:41:06.689Z,101962.31
2022-08-09T19:44:00.771Z,101963.78
2022-08-09T19:46:35.936Z,101959.72
2022-08-09T19:50:07.254Z,101964.00
2022-08-09T19:51:56.025Z,101966.91
2022-08-09T19:54:24.968Z,101969.06
2022-08-09T19:56:52.302Z,101966.97
2022-08-09T19:59:57.452Z,101969.81
2022-08-09T20:02:15.801Z,101970.72
2022-08-09T20:04:54.886Z,101970.59
2022-08-09T20:07:22.581Z,101973.88
2022-08-09T20:09:49.146Z,101973.41
2022-08-09T20:12:27.116Z,101975.06
2022-08-09T20:15:02.067Z,101976.59
2022-08-09T20:17:48.286Z,101967.13
2022-08-09T20:20:14.997Z,101970.13
2022-08-09T20:22:42.928Z,101971.38
2022-08-09T20:25:12.721Z,101970.19
2022-08-09T20:27:39.240Z,101965.94
2022-08-09T20:30:07.297Z,101964.09
2022-08-09T20:32:36.682Z,101959.38
2022-08-09T20:35:03.908Z,101964.28
2022-08-09T20:38:18.713Z,101956.34
2022-08-09T20:40:24.893Z,101963.94
2022-08-09T20:42:59.799Z,101964.91
2022-08-09T20:45:56.714Z,101965.38
2022-08-09T20:48:20.947Z,101956.66
2022-08-09T20:50:51.103Z,101962.31
2022-08-09T20:53:35.641Z,101963.25
2022-08-09T20:56:09.037Z,101959.50
2022-08-09T20:58:38.347Z,101966.53
2022-08-09T21:01:32.594Z,101970.69
2022-08-09T21:05:48.481Z,101974.56
2022-08-09T21:06:43.586Z,101976.69
2022-08-09T21:09:16.459Z,101973.75
2022-08-09T21:14:33.838Z,101979.75
2022-08-09T21:18:21.965Z,101978.44
2022-08-09T21:20:18.481Z,101976.41
2022-08-09T21:22:42.765Z,101979.63
2022-08-09T21:25:14.998Z,101984.25
2022-08-09T21:27:51.373Z,101995.47
2022-08-09T21:30:22.189Z,101991.19
2022-08-09T21:32:49.444Z,101988.31
2022-08-09T21:35:16.698Z,101986.66
2022-08-09T21:37:58.672Z,101996.28
2022-08-09T21:40:30.159Z,101996.91
2022-08-09T21:42:58.580Z,101989.44
2022-08-09T21:45:25.754Z,101996.78
2022-08-09T21:47:52.102Z,101992.56
2022-08-09T21:50:22.926Z,101992.16
2022-08-09T21:52:58.124Z,102000.41
2022-08-09T21:55:24.447Z,102002.97
2022-08-09T21:57:59.619Z,102005.47
2022-08-09T22:00:32.633Z,102011.66
2022-08-09T22:03:02.009Z,102007.03
2022-08-09T22:05:35.581Z,101999.31
2022-08-09T22:08:05.246Z,102013.16
2022-08-09T22:10:31.588Z,102003.66
2022-08-09T22:12:59.691Z,102008.94
2022-08-09T22:15:34.969Z,102014.00
2022-08-09T22:18:01.925Z,102009.53
2022-08-09T22:20:31.216Z,102010.28
2022-08-09T22:22:58.274Z,102001.31
2022-08-09T22:26:05.709Z,102006.63
2022-08-09T22:28:11.733Z,102007.88
2022-08-09T22:30:39.031Z,102004.09
2022-08-09T22:33:17.236Z,102013.91
2022-08-09T22:36:02.759Z,102006.06
2022-08-09T22:38:29.899Z,102017.81
2022-08-09T22:40:57.878Z,102008.03
2022-08-09T22:44:01.989Z,102020.09
2022-08-09T22:48:15.880Z,102022.13
2022-08-09T22:49:01.924Z,102024.91
2022-08-09T22:51:38.186Z,102028.91
2022-08-09T22:54:05.317Z,102023.81
2022-08-09T22:56:34.858Z,102027.09
2022-08-09T22:59:06.074Z,102029.97
2022-08-09T23:01:50.062Z,102036.63
2022-08-09T23:04:17.255Z,102033.84
2022-08-09T23:06:43.958Z,102034.03
2022-08-09T23:09:11.806Z,102042.19
2022-08-09T23:11:38.127Z,102040.63
2022-08-09T23:14:10.050Z,102047.19
2022-08-09T23:16:43.472Z,102041.31
2022-08-09T23:19:09.890Z,102044.84
2022-08-09T23:21:37.005Z,102045.28
2022-08-09T23:24:07.272Z,102048.72
2022-08-09T23:26:38.384Z,102043.44
2022-08-09T23:29:07.034Z,102047.53
2022-08-09T23:31:33.500Z,102031.16
2022-08-09T23:33:59.875Z,102034.81
2022-08-09T23:36:26.401Z,102038.56
2022-08-09T23:38:52.797Z,102032.19
2022-08-09T23:41:29.036Z,102027.88
2022-08-09T23:44:00.903Z,102019.78
2022-08-09T23:46:28.643Z,102026.56
2022-08-09T23:48:55.383Z,102019.09
2022-08-09T23:51:21.908Z,102023.91
2022-08-09T23:53:50.444Z,102020.59
2022-08-09T23:56:16.983Z,102027.22
2022-08-09T23:59:03.561Z,102026.38
